Pays
Station

 

Conditions  météo  pour  Deming, Deming Municipal Airport  -  Etats-Unis    Etats-Unis

  
9 °C
    
 
 

METAR pour Deming, Deming Municipal Airport :

KDMN 221553Z AUTO 20014G20KT 10SM OVC080 09/M03 A2983 RMK AO2 SLP065 T00941028

 

Voici le bulletin pour Deming, Deming Municipal Airport - Etats-Unis.
 
Le bulletin a été fait il y a 39 minutes, à 15:53 UTC .
Le vent soufflait à la vitesse de 7.2 mètres par seconde avec des rafales jusqu'à 10.3 mètres par seconde de Sud/Sud-ouest (200°).
 
La température était de 9 °C, avec un point de rosée à -3 °C.
La pression atmosphérique était de 1010 hPa.
L'humidité relative était de 42.6%.
 
Le ciel était nuageux à partir d'une hauteur de 2438 mètres
 
La visibilité globale était de 16.1 kilomètres.
 

 
 
 

Pays :   A   B   C   D   E   F   G   H   I   J   K   L   M   N   O   P   Q   R   S   T   U   V   W   Y   Z

 

Partenaires :  Info Météo avec Met'info
Météo Marine avec MeteoMarine.net
Infos Site  |  Infos Légales  |  Crédits  |  Confidentialité
Contactez-nous  |  Ajouter aux favoris
© 2013-2019 METAR - Tous droits réservés